KNFE

Fentress Nalf Airport

Fentress, Virginia, USA
METAR KNFE 191656Z AUTO 32005KT 10SM FEW030 SCT038 32/23 A2993 RMK AO2 SLP136 T03220228
Observed Flight Rules
Aug-19 @ 16:56 UTC (17 minutes ago) Visual Flight Rules
Wind Visibility Clouds
320° at 5 knots 10 miles
  • Few at 3,000' AGL
  • Scattered at 3,800' AGL
Temperatures Readings
Current 32°C / 90°F
Dewpoint 23°C / 73°F
Humidity 59%
Altimeter 29.93" Hg
Pressure 1013.6 hPa
Elevation 5
METAR KNFE 191656Z AUTO 32005KT 10SM FEW030 SCT038 32/23 A2993 RMK AO2 SLP136 T03220228
Observed Flight Rules
Aug-19 @ 16:56 UTC
(17 minutes ago)
VFR
Wind Visibility
320° at 5 knots 10 miles
Clouds
  • Few at 3,000' AGL
  • Scattered at 3,800' AGL
Temperature Dewpoint
32°C / 90°F 23°C / 73°F
Humidity Altimeter Pressure
59% 29.93" Hg 1013.6 hPa